Time;durP1;ratioP1;P1;durP2;ratioP2;P2;SDS_P1;SDS_P2;PMS_P1;PMS_P2;Temp;Humidity;BMP_temperature;BMP_pressure;BME280_temperature;BME280_humidity;BME280_pressure;Samples;Min_cycle;Max_cycle;Signal;HPM_P1;HPM_P2
2024/01/26 00:00:11;;;;;;;34.42;14.32;;;;;;;10.89;81.51;101582.66;5072212;28;20137;-83
2024/01/26 00:02:37;;;;;;;34.20;12.75;;;;;;;10.89;81.27;101594.06;5082364;28;20032;-79
2024/01/26 00:05:02;;;;;;;33.20;12.13;;;;;;;10.89;81.61;101587.91;5097051;28;20036;-82
2024/01/26 00:07:28;;;;;;;30.70;11.70;;;;;;;10.89;81.72;101586.16;5096735;28;20016;-82
2024/01/26 00:09:53;;;;;;;28.30;11.90;;;;;;;10.92;81.49;101585.31;5085754;28;20631;-83
2024/01/26 00:12:19;;;;;;;24.83;11.30;;;;;;;10.92;81.17;101585.31;5075960;28;20031;-83
2024/01/26 00:14:44;;;;;;;27.47;11.70;;;;;;;10.94;81.50;101577.41;5076186;28;20025;-83
2024/01/26 00:17:10;;;;;;;32.72;12.40;;;;;;;10.94;81.93;101580.06;5072978;28;20029;-82
2024/01/26 00:19:35;;;;;;;31.00;10.97;;;;;;;10.93;81.51;101578.28;5072366;28;20035;-78
2024/01/26 00:22:00;;;;;;;28.87;11.27;;;;;;;10.95;81.80;101579.19;5072107;28;20089;-79
2024/01/26 00:24:26;;;;;;;28.43;11.57;;;;;;;10.93;81.84;101568.66;5072601;28;20051;-82
2024/01/26 00:26:51;;;;;;;24.93;11.63;;;;;;;10.94;81.66;101575.69;5077287;28;20028;-82
2024/01/26 00:29:16;;;;;;;27.60;11.32;;;;;;;10.95;81.36;101587.09;5092617;28;20076;-82
2024/01/26 00:31:42;;;;;;;27.90;11.37;;;;;;;10.97;81.40;101580.09;5092751;28;20400;-82
2024/01/26 00:34:07;;;;;;;30.83;12.37;;;;;;;10.97;81.54;101580.09;5092437;28;20503;-82
2024/01/26 00:36:32;;;;;;;25.87;11.37;;;;;;;10.93;81.90;101581.81;5092319;28;20032;-83
2024/01/26 00:38:58;;;;;;;31.00;12.07;;;;;;;10.94;81.68;101566.88;5074117;28;20166;-82
2024/01/26 00:41:23;;;;;;;29.25;12.73;;;;;;;10.94;82.01;101566.88;5066967;28;20031;-82
2024/01/26 00:43:49;;;;;;;33.40;13.37;;;;;;;10.92;81.97;101558.97;5072163;28;20177;-83
2024/01/26 00:46:14;;;;;;;34.20;12.70;;;;;;;10.89;82.15;101551.88;5070503;28;20039;-83
2024/01/26 00:48:39;;;;;;;33.20;13.80;;;;;;;10.89;82.33;101551.88;5074252;28;20111;-83
2024/01/26 00:51:06;;;;;;;29.17;12.17;;;;;;;10.88;82.44;101555.38;5092068;28;20030;-82
2024/01/26 00:53:32;;;;;;;30.43;14.20;;;;;;;10.89;82.28;101551.88;5088508;28;20270;-82
2024/01/26 00:55:57;;;;;;;32.28;13.27;;;;;;;10.90;82.15;101553.66;5071837;28;20024;-82
2024/01/26 00:58:26;;;;;;;28.10;12.67;;;;;;;10.90;82.04;101550.16;5071800;28;20037;-79
2024/01/26 01:00:51;;;;;;;27.92;12.68;;;;;;;10.89;82.33;101551.88;5071058;28;20593;-79
2024/01/26 01:03:19;;;;;;;31.38;12.52;;;;;;;10.91;82.56;101544.88;5071814;28;20040;-79
2024/01/26 01:05:44;;;;;;;30.10;12.33;;;;;;;10.91;82.45;101546.66;5071482;28;20028;-80
2024/01/26 01:08:10;;;;;;;25.02;11.65;;;;;;;10.91;82.80;101544.03;5071484;28;20051;-83
2024/01/26 01:10:36;;;;;;;27.30;11.93;;;;;;;10.91;82.14;101541.38;5071687;28;20532;-83
2024/01/26 01:13:04;;;;;;;24.45;11.07;;;;;;;10.91;82.61;101544.03;5071549;28;20496;-83
2024/01/26 01:15:30;;;;;;;24.53;11.50;;;;;;;10.94;82.70;101548.44;5071445;28;20037;-82
2024/01/26 01:17:56;;;;;;;30.15;10.60;;;;;;;10.94;82.12;101545.78;5071463;28;20093;-82
2024/01/26 01:20:21;;;;;;;27.13;11.10;;;;;;;10.95;82.47;101544.94;5071138;28;20060;-80
2024/01/26 01:22:47;;;;;;;28.75;11.32;;;;;;;10.96;81.88;101542.34;5071360;28;20036;-83
2024/01/26 01:25:13;;;;;;;28.58;11.48;;;;;;;10.96;82.71;101541.44;5070026;28;20033;-83
2024/01/26 01:27:39;;;;;;;26.87;11.47;;;;;;;10.95;82.48;101537.03;5071643;28;20054;-82
2024/01/26 01:30:06;;;;;;;25.13;11.23;;;;;;;10.94;82.30;101541.44;5071341;28;20112;-82
2024/01/26 01:32:32;;;;;;;28.30;10.35;;;;;;;10.95;82.62;101547.56;5071507;28;20463;-81
2024/01/26 01:34:57;;;;;;;27.55;11.10;;;;;;;10.96;82.17;101538.78;5070825;28;20020;-80
2024/01/26 01:37:23;;;;;;;27.70;10.37;;;;;;;10.95;82.75;101545.84;5070135;28;20097;-83
2024/01/26 01:39:49;;;;;;;31.40;12.47;;;;;;;10.97;82.38;101543.19;5072535;28;20124;-83
2024/01/26 01:42:15;;;;;;;31.25;11.48;;;;;;;10.97;82.43;101546.75;5090825;28;20047;-82
2024/01/26 01:44:44;;;;;;;26.27;10.30;;;;;;;10.95;82.58;101552.84;5090844;28;20050;-81
2024/01/26 01:47:11;;;;;;;31.55;10.48;;;;;;;10.95;83.02;101545.84;5091035;28;20020;-82
2024/01/26 01:49:40;;;;;;;29.07;10.43;;;;;;;10.95;82.89;101552.84;5083471;28;20500;-81
2024/01/26 01:52:11;;;;;;;27.98;11.05;;;;;;;10.95;82.89;101550.19;5070819;28;20105;-83
2024/01/26 01:54:40;;;;;;;26.98;10.73;;;;;;;10.95;83.03;101544.94;5070600;28;20040;-84
2024/01/26 01:57:05;;;;;;;33.33;10.60;;;;;;;10.96;83.05;101555.50;5070261;28;20063;-82
2024/01/26 01:59:31;;;;;;;29.53;10.70;;;;;;;10.96;83.22;101550.25;5070386;28;20068;-82
2024/01/26 02:01:57;;;;;;;35.45;11.55;;;;;;;10.96;83.59;101555.50;5069931;28;20066;-82
2024/01/26 02:04:23;;;;;;;27.53;11.50;;;;;;;10.95;83.16;101550.19;5070298;28;20056;-82
2024/01/26 02:06:59;;;;;;;29.27;10.55;;;;;;;10.95;83.36;101545.84;5069426;28;20020;-83
2024/01/26 02:09:25;;;;;;;28.00;11.32;;;;;;;10.96;83.52;101546.69;5052379;28;20060;-82
2024/01/26 02:11:51;;;;;;;29.97;10.77;;;;;;;10.96;83.57;101546.69;5070226;28;20055;-82
2024/01/26 02:14:17;;;;;;;32.53;12.00;;;;;;;10.95;83.55;101545.84;5069863;28;20028;-83
2024/01/26 02:16:59;;;;;;;25.77;11.10;;;;;;;10.94;83.75;101548.44;5069988;28;20028;-82
2024/01/26 02:19:26;;;;;;;23.38;9.73;;;;;;;10.95;83.82;101542.28;5069995;28;20025;-83
2024/01/26 02:21:51;;;;;;;23.80;10.00;;;;;;;10.95;83.65;101542.28;5069942;28;20491;-83
2024/01/26 02:24:17;;;;;;;27.23;11.60;;;;;;;10.96;83.33;101544.06;5070317;28;20027;-80
2024/01/26 02:26:43;;;;;;;41.88;13.35;;;;;;;10.96;84.23;101546.69;5069887;28;20024;-83
2024/01/26 02:29:08;;;;;;;29.50;11.53;;;;;;;10.94;83.77;101548.44;5069909;28;20029;-82
2024/01/26 02:31:34;;;;;;;30.20;11.50;;;;;;;10.93;83.75;101542.28;5070195;28;20408;-82
2024/01/26 02:33:59;;;;;;;34.57;11.67;;;;;;;10.93;83.85;101547.56;5069626;28;20402;-82
2024/01/26 02:36:29;;;;;;;32.37;11.40;;;;;;;10.93;83.88;101542.28;5069801;28;20156;-82
2024/01/26 02:38:55;;;;;;;30.27;12.10;;;;;;;10.94;84.25;101537.88;5069935;28;20024;-82
2024/01/26 02:41:21;;;;;;;34.42;11.63;;;;;;;10.96;83.95;101546.69;5083728;28;20115;-80
2024/01/26 02:43:46;;;;;;;29.33;10.37;;;;;;;10.95;84.05;101545.84;5089931;28;20539;-82
2024/01/26 02:46:12;;;;;;;28.10;10.87;;;;;;;10.96;83.88;101539.69;5067085;28;20270;-81
2024/01/26 02:48:38;;;;;;;31.67;10.80;;;;;;;10.96;84.05;101539.69;5069869;28;20043;-82
2024/01/26 02:51:04;;;;;;;33.83;11.40;;;;;;;10.93;83.90;101541.38;5069990;28;20099;-80
2024/01/26 02:53:30;;;;;;;32.88;10.40;;;;;;;10.93;84.38;101546.66;5069882;28;20032;-83
2024/01/26 02:55:55;;;;;;;25.90;10.53;;;;;;;10.94;84.13;101545.78;5069695;28;20594;-82
2024/01/26 02:58:21;;;;;;;26.20;10.00;;;;;;;10.94;83.73;101551.97;5069556;28;20024;-82
2024/01/26 03:00:46;;;;;;;28.45;10.20;;;;;;;10.96;83.87;101554.59;5069303;28;20048;-82
2024/01/26 03:03:12;;;;;;;29.37;10.20;;;;;;;10.97;84.09;101551.09;5069936;28;20033;-80
2024/01/26 03:05:37;;;;;;;29.43;9.23;;;;;;;10.96;84.19;101551.97;5069584;28;20584;-80
2024/01/26 03:08:03;;;;;;;23.47;8.63;;;;;;;10.97;83.99;101545.84;5069827;28;20656;-82
2024/01/26 03:10:28;;;;;;;23.97;8.57;;;;;;;10.96;84.00;101550.25;5075628;28;20278;-81
2024/01/26 03:12:55;;;;;;;26.13;8.50;;;;;;;10.95;84.18;101550.19;5090042;28;20030;-81
2024/01/26 03:15:20;;;;;;;24.70;8.93;;;;;;;10.94;84.29;101548.44;5089634;28;20032;-82
2024/01/26 03:17:46;;;;;;;22.87;8.80;;;;;;;10.91;84.59;101544.88;5092632;28;20549;-82
2024/01/26 03:20:11;;;;;;;22.27;8.55;;;;;;;10.93;84.45;101557.19;5093591;28;20024;-82
2024/01/26 03:22:36;;;;;;;26.80;9.23;;;;;;;10.94;84.27;101553.69;5093840;28;20395;-82
2024/01/26 03:25:03;;;;;;;27.60;9.03;;;;;;;10.95;84.29;101550.19;5081901;28;20032;-82
2024/01/26 03:27:30;;;;;;;23.70;8.60;;;;;;;10.95;83.90;101551.09;5073605;28;20031;-80
2024/01/26 03:29:55;;;;;;;23.05;8.63;;;;;;;10.96;84.16;101552.88;5073185;28;20558;-81
2024/01/26 03:32:21;;;;;;;19.40;7.83;;;;;;;10.95;83.77;101551.09;5073542;28;20028;-81
2024/01/26 03:34:46;;;;;;;20.30;7.87;;;;;;;10.95;84.20;101555.47;5073534;28;20029;-83
2024/01/26 03:37:12;;;;;;;20.90;8.40;;;;;;;10.93;83.93;101550.19;5073162;28;20536;-81
2024/01/26 03:39:37;;;;;;;21.08;7.82;;;;;;;10.94;84.04;101549.34;5055251;28;20035;-83
2024/01/26 03:42:03;;;;;;;24.23;9.00;;;;;;;10.94;83.74;101549.34;5073905;28;20047;-82
2024/01/26 03:44:29;;;;;;;20.75;7.53;;;;;;;10.94;83.93;101541.44;5072840;28;20047;-82
2024/01/26 03:46:54;;;;;;;18.67;7.57;;;;;;;10.94;84.19;101549.34;5073333;28;20107;-82
2024/01/26 03:49:19;;;;;;;20.63;7.60;;;;;;;10.92;83.98;101545.78;5073158;28;20032;-79
2024/01/26 03:51:45;;;;;;;17.63;7.03;;;;;;;10.90;83.97;101550.16;5073305;28;20023;-82
2024/01/26 03:54:10;;;;;;;21.83;6.97;;;;;;;10.88;84.25;101539.56;5054911;28;20134;-82
2024/01/26 03:56:36;;;;;;;17.42;6.55;;;;;;;10.88;83.81;101543.97;5072788;28;20127;-83
2024/01/26 03:59:01;;;;;;;14.47;6.60;;;;;;;10.87;84.12;101542.19;5072735;28;20052;-81
2024/01/26 04:01:26;;;;;;;20.30;7.00;;;;;;;10.87;84.00;101552.75;5072392;28;20059;-83
2024/01/26 04:03:52;;;;;;;18.97;7.00;;;;;;;10.86;84.02;101557.13;5072929;28;20066;-80
2024/01/26 04:06:18;;;;;;;17.80;6.97;;;;;;;10.84;84.25;101545.66;5072713;28;20376;-79
2024/01/26 04:08:44;;;;;;;17.63;6.85;;;;;;;10.85;84.06;101547.44;5072982;28;20103;-82
2024/01/26 04:11:10;;;;;;;18.98;6.93;;;;;;;10.83;84.11;101546.53;5072613;28;20028;-83
2024/01/26 04:13:35;;;;;;;18.93;7.07;;;;;;;10.83;84.04;101545.63;5073148;28;20023;-79
2024/01/26 04:16:01;;;;;;;20.40;6.77;;;;;;;10.83;84.10;101550.91;5072541;28;20074;-78
2024/01/26 04:18:26;;;;;;;20.05;7.15;;;;;;;10.82;84.35;101552.66;5072208;28;20112;-83
2024/01/26 04:20:51;;;;;;;15.00;6.27;;;;;;;10.82;83.97;101560.56;5072327;28;20507;-82
2024/01/26 04:23:17;;;;;;;19.73;7.10;;;;;;;10.81;83.94;101555.25;5072402;28;20025;-81
2024/01/26 04:25:43;;;;;;;18.40;7.00;;;;;;;10.79;84.15;101560.53;5070631;28;20026;-79
2024/01/26 04:28:09;;;;;;;17.60;6.45;;;;;;;10.78;84.33;101561.38;5071800;28;20440;-81
2024/01/26 04:30:39;;;;;;;18.17;7.10;;;;;;;10.75;83.96;101563.97;5072333;28;20032;-77
2024/01/26 04:33:06;;;;;;;16.60;6.13;;;;;;;10.74;84.21;101562.22;5072439;28;20021;-78
2024/01/26 04:35:31;;;;;;;19.02;6.97;;;;;;;10.75;84.51;101564.84;5072307;28;20476;-77
2024/01/26 04:37:56;;;;;;;18.17;7.33;;;;;;;10.75;84.51;101564.84;5072049;28;20120;-78
2024/01/26 04:40:22;;;;;;;18.07;7.10;;;;;;;10.75;84.63;101549.03;5075940;28;20035;-78
2024/01/26 04:42:47;;;;;;;18.95;7.10;;;;;;;10.77;84.22;101562.25;5071867;28;20032;-78
2024/01/26 04:45:13;;;;;;;20.57;7.40;;;;;;;10.78;84.45;101561.38;5071860;28;20408;-82
2024/01/26 04:47:38;;;;;;;22.07;7.30;;;;;;;10.77;84.29;101549.94;5072031;28;20024;-81
2024/01/26 04:50:04;;;;;;;19.30;7.45;;;;;;;10.78;84.39;101545.56;5053684;28;20025;-79
2024/01/26 04:52:30;;;;;;;19.43;7.53;;;;;;;10.75;84.27;101548.16;5053959;28;20032;-82
2024/01/26 04:54:55;;;;;;;18.98;7.45;;;;;;;10.74;84.46;101546.41;5071788;28;20492;-83
2024/01/26 04:57:21;;;;;;;19.40;6.83;;;;;;;10.72;84.45;101549.00;5071714;28;20064;-82
2024/01/26 04:59:46;;;;;;;19.77;7.03;;;;;;;10.72;84.11;101553.34;5071986;28;20049;-79
2024/01/26 05:02:12;;;;;;;17.87;7.57;;;;;;;10.72;84.52;101554.25;5053837;28;20035;-80
2024/01/26 05:04:37;;;;;;;20.15;8.02;;;;;;;10.72;84.59;101558.63;5053703;28;20480;-82
2024/01/26 05:07:03;;;;;;;22.00;7.73;;;;;;;10.72;84.09;101556.00;5071612;28;20028;-82
2024/01/26 05:09:28;;;;;;;22.03;7.43;;;;;;;10.72;84.49;101554.25;5071563;28;20028;-81
2024/01/26 05:11:54;;;;;;;19.05;7.28;;;;;;;10.73;84.18;101550.75;5052950;28;20036;-77
2024/01/26 05:14:21;;;;;;;39.03;8.37;;;;;;;10.76;84.18;101544.66;5071095;28;20146;-77
2024/01/26 05:16:47;;;;;;;20.70;7.82;;;;;;;10.73;84.42;101558.66;5071293;28;20032;-78
2024/01/26 05:19:12;;;;;;;26.30;8.90;;;;;;;10.71;84.38;101559.50;5071215;28;20024;-78
2024/01/26 05:21:40;;;;;;;24.35;8.68;;;;;;;10.72;84.30;101563.91;5070977;28;20025;-78
2024/01/26 05:24:05;;;;;;;22.40;8.00;;;;;;;10.72;84.62;101569.16;5052689;28;20025;-82
2024/01/26 05:26:31;;;;;;;19.43;7.97;;;;;;;10.72;84.29;101563.91;5053206;28;20024;-78
2024/01/26 05:28:56;;;;;;;24.60;8.87;;;;;;;10.73;84.23;101570.94;5052942;28;20579;-79
2024/01/26 05:31:21;;;;;;;22.23;8.87;;;;;;;10.73;84.65;101570.94;5069899;28;20024;-83
2024/01/26 05:33:47;;;;;;;19.00;8.37;;;;;;;10.71;84.48;101570.03;5053193;28;20404;-81
2024/01/26 05:36:13;;;;;;;25.10;8.90;;;;;;;10.71;84.30;101572.66;5052731;28;20263;-78
2024/01/26 05:38:38;;;;;;;20.60;7.57;;;;;;;10.68;84.91;101562.09;5071033;28;20020;-81
2024/01/26 05:41:03;;;;;;;20.10;8.10;;;;;;;10.67;84.46;101568.22;5063653;28;20514;-83
2024/01/26 05:43:29;;;;;;;21.67;8.32;;;;;;;10.66;84.68;101572.63;5052641;28;20025;-82
2024/01/26 05:45:54;;;;;;;23.80;8.97;;;;;;;10.69;84.33;101574.38;5052590;28;20032;-82
2024/01/26 05:48:20;;;;;;;24.70;8.47;;;;;;;10.69;84.44;101574.38;5052665;28;20432;-81
2024/01/26 05:50:45;;;;;;;22.27;8.40;;;;;;;10.70;84.20;101582.34;5052823;28;20028;-82
2024/01/26 05:53:11;;;;;;;21.05;8.32;;;;;;;10.70;84.31;101581.44;5052738;28;20028;-79
2024/01/26 05:55:36;;;;;;;22.57;8.23;;;;;;;10.69;84.25;101588.47;5052602;28;20032;-78
2024/01/26 05:58:02;;;;;;;27.83;8.37;;;;;;;10.70;84.22;101590.25;5052283;28;20023;-77
2024/01/26 06:00:27;;;;;;;22.00;8.45;;;;;;;10.71;84.18;101599.00;5069905;28;20056;-79
2024/01/26 06:02:53;;;;;;;26.47;8.53;;;;;;;10.71;84.51;101604.28;5052524;28;20170;-81
2024/01/26 06:05:18;;;;;;;20.37;8.27;;;;;;;10.70;84.15;101613.03;5052042;28;20032;-78
2024/01/26 06:07:44;;;;;;;21.73;8.00;;;;;;;10.70;84.61;101607.78;5052295;28;20025;-81
2024/01/26 06:10:09;;;;;;;22.97;8.40;;;;;;;10.70;84.67;101602.50;5052507;28;20119;-82
2024/01/26 06:12:39;;;;;;;20.53;7.50;;;;;;;10.69;83.97;101611.28;5068013;28;20075;-81
2024/01/26 06:15:08;;;;;;;19.80;7.22;;;;;;;10.67;84.79;101615.63;5052093;28;20025;-82
2024/01/26 06:17:34;;;;;;;26.10;8.23;;;;;;;10.68;84.25;101612.13;5051891;28;20043;-83
2024/01/26 06:19:59;;;;;;;23.77;7.70;;;;;;;10.66;84.19;101613.84;5051967;28;20029;-83
2024/01/26 06:22:25;;;;;;;21.40;7.93;;;;;;;10.62;84.59;101621.72;5051725;28;20150;-80
2024/01/26 06:24:50;;;;;;;23.23;7.97;;;;;;;10.62;84.53;101620.84;5068626;28;20020;-77
2024/01/26 06:27:15;;;;;;;23.10;8.23;;;;;;;10.62;84.44;101615.56;5051862;28;20068;-79
2024/01/26 06:29:41;;;;;;;24.53;8.33;;;;;;;10.63;84.51;101625.25;5051879;28;20024;-81
2024/01/26 06:32:06;;;;;;;23.30;8.95;;;;;;;10.63;84.91;101626.13;5051810;28;20035;-77
2024/01/26 06:34:33;;;;;;;20.07;8.10;;;;;;;10.63;84.70;101626.13;5052082;28;20029;-81
2024/01/26 06:36:58;;;;;;;20.30;7.65;;;;;;;10.63;84.83;101634.03;5051841;28;20099;-78
2024/01/26 06:39:23;;;;;;;24.73;7.93;;;;;;;10.60;84.65;101644.50;5068522;28;20047;-77
2024/01/26 06:41:49;;;;;;;25.77;7.27;;;;;;;10.54;85.04;101652.31;5061123;28;20032;-77
2024/01/26 06:44:15;;;;;;;16.53;6.67;;;;;;;10.50;84.89;101652.22;5051544;28;20111;-79
2024/01/26 06:46:41;;;;;;;20.03;7.93;;;;;;;10.50;84.82;101660.13;5068782;28;20835;-80
2024/01/26 06:49:06;;;;;;;20.67;8.75;;;;;;;10.51;84.73;101665.44;5050491;28;20033;-77
2024/01/26 06:51:31;;;;;;;21.23;8.33;;;;;;;10.51;85.06;101665.44;5050877;28;20032;-81
2024/01/26 06:54:00;;;;;;;20.60;7.93;;;;;;;10.54;84.62;101668.13;5050826;28;20035;-81
2024/01/26 06:56:26;;;;;;;19.38;7.40;;;;;;;10.55;84.50;101667.25;5058635;28;20089;-79
2024/01/26 06:58:52;;;;;;;21.27;7.87;;;;;;;10.56;84.50;101679.56;5069255;28;20028;-77
2024/01/26 07:01:17;;;;;;;17.67;6.45;;;;;;;10.57;84.41;101685.69;5050550;28;20048;-77
2024/01/26 07:03:44;;;;;;;18.20;6.85;;;;;;;10.56;84.73;101684.84;5050402;28;20044;-77
2024/01/26 07:06:10;;;;;;;19.37;7.43;;;;;;;10.56;84.57;101681.28;5050925;28;20404;-76
2024/01/26 07:08:35;;;;;;;18.57;7.27;;;;;;;10.55;84.67;101683.06;5050714;28;20028;-80
2024/01/26 07:11:01;;;;;;;21.33;7.27;;;;;;;10.54;84.52;101681.28;5050975;28;20111;-79
2024/01/26 07:13:26;;;;;;;20.27;6.78;;;;;;;10.53;84.75;101683.88;5049946;28;20036;-77
2024/01/26 07:15:51;;;;;;;18.73;6.77;;;;;;;10.51;84.68;101686.50;5050505;28;20041;-79
2024/01/26 07:18:17;;;;;;;21.40;7.07;;;;;;;10.52;84.48;101687.38;5057014;28;20124;-76
2024/01/26 07:20:42;;;;;;;19.17;6.43;;;;;;;10.50;84.44;101687.34;5051235;28;20040;-77
2024/01/26 07:23:08;;;;;;;23.57;8.10;;;;;;;10.45;84.59;101686.34;5050658;28;20032;-78
2024/01/26 07:25:33;;;;;;;18.65;6.88;;;;;;;10.42;84.30;101691.56;5045664;28;20119;-78
2024/01/26 07:27:58;;;;;;;22.73;9.23;;;;;;;10.42;84.60;101686.28;5050209;28;20029;-76
2024/01/26 07:30:24;;;;;;;19.63;8.07;;;;;;;10.36;84.65;101692.28;5050899;28;20027;-78
2024/01/26 07:32:49;;;;;;;16.33;6.80;;;;;;;10.36;84.74;101694.06;5049728;28;20032;-78
2024/01/26 07:35:15;;;;;;;15.47;5.77;;;;;;;10.36;84.70;101694.06;5068393;28;20029;-79
2024/01/26 07:37:40;;;;;;;16.63;6.00;;;;;;;10.37;84.49;101693.19;5062966;28;20286;-80
2024/01/26 07:40:08;;;;;;;15.47;5.40;;;;;;;10.36;84.85;101692.28;5045969;28;20036;-78
2024/01/26 07:42:34;;;;;;;15.00;5.82;;;;;;;10.36;84.95;101692.28;5049698;28;20450;-81
2024/01/26 07:45:00;;;;;;;14.60;5.75;;;;;;;10.37;84.60;101695.81;5052453;28;20069;-79
2024/01/26 07:47:26;;;;;;;17.48;6.38;;;;;;;10.36;85.06;101691.41;5050580;28;20472;-81
2024/01/26 07:49:51;;;;;;;18.73;6.80;;;;;;;10.33;85.14;101694.88;5051071;28;20524;-78
2024/01/26 07:52:16;;;;;;;17.40;6.47;;;;;;;10.32;85.00;101690.47;5051200;28;20032;-76
2024/01/26 07:54:42;;;;;;;19.43;6.40;;;;;;;10.34;84.89;101697.53;5050987;28;20038;-76
2024/01/26 07:57:08;;;;;;;20.17;7.63;;;;;;;10.37;84.85;101702.00;5068963;28;20029;-79
2024/01/26 07:59:33;;;;;;;23.33;7.90;;;;;;;10.40;84.61;101699.44;5050883;28;20557;-82
2024/01/26 08:01:59;;;;;;;20.60;7.37;;;;;;;10.41;84.95;101701.22;5050813;28;20045;-78
2024/01/26 08:04:24;;;;;;;21.75;7.55;;;;;;;10.42;84.71;101696.84;5052906;28;20041;-80
2024/01/26 08:06:49;;;;;;;18.93;6.90;;;;;;;10.42;84.60;101707.38;5054638;28;20028;-79
2024/01/26 08:09:15;;;;;;;19.87;7.27;;;;;;;10.42;85.11;101712.63;5054833;28;20522;-81
2024/01/26 08:11:40;;;;;;;18.53;6.47;;;;;;;10.44;84.86;101716.19;5054323;28;20069;-81
2024/01/26 08:14:06;;;;;;;17.92;6.43;;;;;;;10.46;84.82;101714.47;5072190;28;20084;-81
2024/01/26 08:16:32;;;;;;;15.90;5.60;;;;;;;10.46;84.64;101719.72;5072104;28;20024;-81
2024/01/26 08:18:58;;;;;;;16.83;5.93;;;;;;;10.46;84.65;101717.09;5072348;28;20468;-81
2024/01/26 08:21:23;;;;;;;17.27;5.73;;;;;;;10.49;84.66;101719.81;5072158;28;20036;-82
2024/01/26 08:23:49;;;;;;;22.37;6.40;;;;;;;10.48;84.85;101718.00;5052962;28;20028;-82
2024/01/26 08:26:14;;;;;;;20.37;7.10;;;;;;;10.48;85.07;101728.53;5072702;28;20262;-80
2024/01/26 08:28:40;;;;;;;24.07;7.97;;;;;;;10.49;84.76;101735.63;5054062;28;20036;-82
2024/01/26 08:31:05;;;;;;;18.90;6.90;;;;;;;10.52;84.67;101746.22;5072114;28;20028;-80
2024/01/26 08:33:31;;;;;;;20.23;7.13;;;;;;;10.53;84.93;101748.00;5054244;28;20267;-77
2024/01/26 08:35:56;;;;;;;18.13;6.83;;;;;;;10.55;84.52;101748.00;5072309;28;20024;-77
2024/01/26 08:38:22;;;;;;;21.85;7.88;;;;;;;10.57;84.55;101744.56;5053978;28;20027;-77
2024/01/26 08:40:47;;;;;;;19.13;7.20;;;;;;;10.59;84.63;101748.09;5071867;28;20036;-78
2024/01/26 08:43:13;;;;;;;19.57;7.17;;;;;;;10.61;84.43;101735.84;5053667;28;20451;-80
2024/01/26 08:45:38;;;;;;;21.20;7.03;;;;;;;10.63;84.75;101742.03;5071457;28;20098;-81
2024/01/26 08:48:04;;;;;;;20.83;7.38;;;;;;;10.66;84.39;101745.59;5071982;28;20020;-80
2024/01/26 08:50:30;;;;;;;19.13;7.00;;;;;;;10.68;84.53;101747.41;5054272;28;20033;-80
2024/01/26 08:52:55;;;;;;;21.25;6.68;;;;;;;10.69;84.47;101743.00;5053752;28;20089;-82
2024/01/26 08:55:20;;;;;;;18.30;6.90;;;;;;;10.73;84.35;101745.75;5053663;28;20039;-80
2024/01/26 08:57:48;;;;;;;18.93;7.13;;;;;;;10.72;84.34;101746.59;5071769;28;20034;-83
2024/01/26 09:00:15;;;;;;;17.10;6.50;;;;;;;10.72;84.25;101749.22;5070203;28;20094;-82
2024/01/26 09:02:40;;;;;;;18.80;7.30;;;;;;;10.73;84.16;101747.47;5071297;28;20040;-81
2024/01/26 09:05:06;;;;;;;18.13;7.17;;;;;;;10.74;84.14;101751.91;5071815;28;20455;-81
2024/01/26 09:07:32;;;;;;;17.10;6.88;;;;;;;10.73;84.40;101755.38;5053298;28;20450;-80
2024/01/26 09:09:58;;;;;;;20.03;6.53;;;;;;;10.74;84.41;101751.91;5052810;28;20127;-78
2024/01/26 09:12:23;;;;;;;18.95;6.85;;;;;;;10.70;84.27;101761.50;5060539;28;20392;-76
2024/01/26 09:14:49;;;;;;;18.83;6.77;;;;;;;10.66;84.25;101758.75;5065385;28;20111;-78
2024/01/26 09:17:14;;;;;;;17.77;6.23;;;;;;;10.63;84.57;101760.47;5055714;28;20504;-79
2024/01/26 09:19:39;;;;;;;17.55;6.32;;;;;;;10.68;84.69;101767.56;5070879;28;20027;-79
2024/01/26 09:22:07;;;;;;;17.53;6.70;;;;;;;10.71;84.50;101771.16;5052952;28;20420;-81
2024/01/26 09:24:32;;;;;;;17.23;6.43;;;;;;;10.76;84.33;101772.13;5053605;28;20093;-75
2024/01/26 09:26:58;;;;;;;15.23;6.67;;;;;;;10.79;83.91;101776.59;5053129;28;20127;-78
2024/01/26 09:29:26;;;;;;;18.43;8.17;;;;;;;10.82;84.12;101770.47;5070950;28;20089;-80
2024/01/26 09:31:54;;;;;;;21.40;7.70;;;;;;;10.85;83.52;101781.06;5071058;28;20032;-77
2024/01/26 09:34:19;;;;;;;19.70;7.65;;;;;;;10.88;83.99;101781.16;5053362;28;20021;-76
2024/01/26 09:36:44;;;;;;;18.33;7.63;;;;;;;10.85;83.61;101781.06;5052698;28;20028;-81
2024/01/26 09:39:10;;;;;;;15.40;7.13;;;;;;;10.86;83.88;101782.88;5053133;28;20024;-80
2024/01/26 09:41:36;;;;;;;16.33;6.82;;;;;;;10.88;83.74;101783.78;5069546;28;20028;-80
2024/01/26 09:44:02;;;;;;;16.50;6.47;;;;;;;10.90;83.45;101782.06;5090940;28;20036;-78
2024/01/26 09:46:30;;;;;;;18.58;7.65;;;;;;;10.95;83.71;101782.13;5079485;28;20025;-76
2024/01/26 09:48:57;;;;;;;15.73;7.30;;;;;;;10.96;83.56;101783.91;5032923;28;20031;-75
2024/01/26 09:51:25;;;;;;;19.58;7.93;;;;;;;10.98;83.77;101783.09;5032819;28;20114;-75
2024/01/26 09:53:57;;;;;;;19.40;8.30;;;;;;;11.00;83.55;101775.22;5032798;28;20539;-75
2024/01/26 09:56:23;;;;;;;17.77;7.82;;;;;;;11.02;83.47;101786.69;5040041;28;20031;-80
2024/01/26 09:58:48;;;;;;;18.40;7.55;;;;;;;11.06;83.44;101785.88;5051429;28;20028;-78
2024/01/26 10:01:22;;;;;;;17.50;7.57;;;;;;;11.07;83.16;101782.38;5069921;28;20072;-79
2024/01/26 10:03:50;;;;;;;22.00;9.70;;;;;;;11.10;83.07;101786.84;5069539;28;20060;-79
2024/01/26 10:06:15;;;;;;;24.80;9.77;;;;;;;11.08;83.01;101778.88;5051224;28;20032;-82
2024/01/26 10:08:41;;;;;;;25.90;10.03;;;;;;;11.04;83.17;101777.06;5051391;28;20033;-78
2024/01/26 10:11:08;;;;;;;18.75;8.27;;;;;;;11.03;83.14;101777.91;5070041;28;20508;-82
2024/01/26 10:13:33;;;;;;;20.23;8.07;;;;;;;11.02;83.52;101778.78;5051858;28;20457;-79
2024/01/26 10:16:09;;;;;;;18.20;8.03;;;;;;;11.05;83.25;101781.47;5051942;28;20061;-81
2024/01/26 10:18:48;;;;;;;17.95;8.32;;;;;;;11.05;83.06;101787.63;5052421;28;20056;-78
2024/01/26 10:21:15;;;;;;;16.70;7.70;;;;;;;11.08;83.34;101796.44;5070110;28;20370;-81
2024/01/26 10:23:41;;;;;;;17.65;8.00;;;;;;;11.09;83.32;101791.22;5069304;28;20036;-80
2024/01/26 10:26:07;;;;;;;18.42;9.10;;;;;;;11.10;83.07;101795.63;5055982;28;20127;-85
2024/01/26 10:28:32;;;;;;;20.95;8.85;;;;;;;11.11;83.27;101797.38;5078648;28;20103;-84
2024/01/26 10:30:58;;;;;;;21.20;9.33;;;;;;;11.11;83.46;101792.13;5090059;28;20040;-84
2024/01/26 10:33:24;;;;;;;20.93;9.27;;;;;;;11.15;83.14;101798.34;5074751;28;20020;-75
2024/01/26 10:36:00;;;;;;;19.83;8.95;;;;;;;11.12;83.23;101793.91;5084467;28;20499;-76
2024/01/26 10:38:30;;;;;;;21.15;9.35;;;;;;;11.09;83.09;101796.47;5090337;28;20039;-85
2024/01/26 10:41:03;;;;;;;22.23;9.23;;;;;;;11.07;83.14;101808.75;5090089;28;20024;-84
2024/01/26 10:43:29;;;;;;;19.93;9.60;;;;;;;11.11;83.06;101809.69;5090294;28;20107;-74
2024/01/26 10:45:57;;;;;;;24.60;10.07;;;;;;;11.11;82.89;101810.56;5076881;28;20031;-84
2024/01/26 10:48:23;;;;;;;22.02;9.57;;;;;;;11.14;82.93;101815.91;5069540;28;20028;-78
2024/01/26 10:50:49;;;;;;;20.40;9.75;;;;;;;11.18;83.17;101812.47;5069435;28;20116;-80
2024/01/26 10:53:17;;;;;;;21.80;10.23;;;;;;;11.22;83.21;101813.41;5069655;28;20030;-77
2024/01/26 10:55:44;;;;;;;21.37;9.67;;;;;;;11.26;82.76;101817.00;5069437;28;20029;-83
2024/01/26 10:58:10;;;;;;;20.02;9.70;;;;;;;11.29;83.14;101811.78;5070971;28;20099;-82
2024/01/26 11:00:35;;;;;;;21.58;10.35;;;;;;;11.32;82.50;101806.56;5079053;28;20123;-85
2024/01/26 11:03:03;;;;;;;23.13;10.50;;;;;;;11.32;82.55;101801.28;5089576;28;20416;-80
2024/01/26 11:05:28;;;;;;;22.60;10.88;;;;;;;11.27;82.64;101795.03;5050830;28;20033;-84
2024/01/26 11:07:54;;;;;;;22.67;11.38;;;;;;;11.22;82.92;101802.88;5080653;28;20041;-79